Time;durP1;ratioP1;P1;durP2;ratioP2;P2;SDS_P1;SDS_P2;PMS_P1;PMS_P2;Temp;Humidity;BMP_temperature;BMP_pressure;BME280_temperature;BME280_humidity;BME280_pressure;Samples;Min_cycle;Max_cycle;Signal;HPM_P1;HPM_P2
2021/11/21 00:02:14;;;;;;;6.20;1.20;;;;;;;14.56;66.59;100314.06;4765802;29;121372;-88
2021/11/21 00:04:40;;;;;;;6.68;1.42;;;;;;;14.66;66.61;100328.47;4795235;29;122259;-88
2021/11/21 00:07:05;;;;;;;7.95;1.58;;;;;;;14.82;66.50;100343.69;4792260;29;120567;-89
2021/11/21 00:09:31;;;;;;;6.90;1.58;;;;;;;14.85;66.16;100343.47;4763696;29;120576;-86
2021/11/21 00:11:57;;;;;;;27.67;9.50;;;;;;;14.49;66.33;100300.72;4775281;29;123194;-88
2021/11/21 00:14:23;;;;;;;14.32;3.90;;;;;;;14.80;67.25;100346.94;4812354;29;120295;-88
2021/11/21 00:16:48;;;;;;;17.02;3.40;;;;;;;14.53;66.95;100304.00;4764872;29;122487;-87
2021/11/21 00:19:14;;;;;;;12.32;3.08;;;;;;;14.76;66.69;100345.66;4790570;29;123116;-88
2021/11/21 00:21:40;;;;;;;10.27;1.73;;;;;;;14.63;66.36;100329.44;4794986;29;119975;-87
2021/11/21 00:24:06;;;;;;;11.00;1.95;;;;;;;14.71;66.35;100342.34;4765094;29;122109;-87
2021/11/21 00:26:31;;;;;;;11.55;2.50;;;;;;;14.60;66.75;100324.91;4782293;29;122936;-87
2021/11/21 00:28:58;;;;;;;13.25;2.35;;;;;;;14.46;66.74;100312.72;4796106;29;119589;-87
2021/11/21 00:31:23;;;;;;;13.57;2.67;;;;;;;14.56;66.74;100327.88;4805196;29;122466;-87
2021/11/21 00:33:49;;;;;;;13.50;2.35;;;;;;;14.67;66.34;100346.56;4785446;29;119581;-87
2021/11/21 00:36:15;;;;;;;12.50;2.63;;;;;;;14.75;67.08;100358.69;4776233;29;123024;-87
2021/11/21 00:38:42;;;;;;;12.05;2.03;;;;;;;14.67;66.59;100344.56;4799405;29;124429;-87
2021/11/21 00:41:07;;;;;;;12.82;2.22;;;;;;;14.69;66.76;100341.31;4764565;29;120552;-87
2021/11/21 00:43:34;;;;;;;14.43;3.15;;;;;;;14.59;66.78;100334.44;4780068;29;122179;-87
2021/11/21 00:46:00;;;;;;;9.75;1.70;;;;;;;14.70;66.85;100351.88;4797691;29;123174;-87
2021/11/21 00:48:27;;;;;;;16.02;2.53;;;;;;;14.68;67.19;100331.53;4769692;29;119668;-87
2021/11/21 00:50:57;;;;;;;13.02;2.20;;;;;;;14.61;66.46;100327.16;4760191;29;122371;-87
2021/11/21 00:53:23;;;;;;;14.27;2.00;;;;;;;14.72;66.75;100341.09;4786006;29;122992;-87
2021/11/21 00:58:15;;;;;;;18.13;3.22;;;;;;;14.59;66.88;100315.88;4806815;29;120542;-87
2021/11/21 01:00:44;;;;;;;12.73;2.17;;;;;;;14.64;66.74;100337.25;4793440;29;120040;-87
2021/11/21 01:03:13;;;;;;;12.02;1.90;;;;;;;14.42;66.55;100301.84;4781240;29;122984;-86
2021/11/21 01:05:41;;;;;;;16.77;2.50;;;;;;;14.65;66.29;100349.78;4793391;29;123225;-87
2021/11/21 01:08:07;;;;;;;14.07;2.53;;;;;;;14.65;66.51;100349.78;4807209;29;120437;-87
2021/11/21 01:10:33;;;;;;;14.32;2.22;;;;;;;14.56;66.81;100333.41;4781166;29;122762;-87
2021/11/21 01:12:59;;;;;;;9.85;2.58;;;;;;;14.36;66.76;100311.31;4798450;29;122774;-86
2021/11/21 01:15:25;;;;;;;12.73;2.40;;;;;;;14.59;66.77;100340.69;4797277;29;120386;-87
2021/11/21 01:17:54;;;;;;;13.32;2.58;;;;;;;14.42;67.02;100318.41;4793494;29;121944;-87
2021/11/21 01:20:26;;;;;;;9.20;1.67;;;;;;;14.63;66.95;100355.03;4813055;29;119860;-87
2021/11/21 01:22:52;;;;;;;16.42;2.03;;;;;;;14.57;67.03;100345.19;4783112;29;122537;-86
2021/11/21 01:25:19;;;;;;;16.50;2.05;;;;;;;14.56;66.94;100338.91;4776980;29;122778;-87
2021/11/21 01:27:45;;;;;;;10.65;2.20;;;;;;;14.65;66.60;100352.56;4785923;29;119937;-86
2021/11/21 01:30:17;;;;;;;16.33;2.03;;;;;;;14.65;67.21;100349.03;4802516;29;122275;-86
2021/11/21 01:32:45;;;;;;;13.05;2.78;;;;;;;14.59;66.82;100339.94;4777258;29;123196;-86
2021/11/21 01:35:11;;;;;;;17.48;2.28;;;;;;;14.56;66.79;100335.41;4788525;29;119999;-86
2021/11/21 01:37:38;;;;;;;17.33;2.08;;;;;;;14.20;66.79;100267.78;4806319;29;122533;-87
2021/11/21 01:40:06;;;;;;;14.77;2.20;;;;;;;14.53;66.54;100320.56;4796373;29;124876;-86
2021/11/21 01:42:32;;;;;;;12.05;2.28;;;;;;;14.49;66.65;100311.75;4768472;29;122161;-86
2021/11/21 01:44:58;;;;;;;22.95;2.42;;;;;;;14.34;66.56;100280.72;4783028;29;120550;-86
2021/11/21 01:47:24;;;;;;;16.83;2.33;;;;;;;14.47;66.24;100314.25;4800483;29;120667;-86
2021/11/21 01:49:49;;;;;;;21.20;2.45;;;;;;;14.50;66.30;100305.00;4786566;29;121752;-86
2021/11/21 01:52:15;;;;;;;17.60;2.67;;;;;;;14.45;66.55;100302.19;4803519;29;119891;-86
2021/11/21 01:54:41;;;;;;;20.35;2.25;;;;;;;14.48;66.39;100315.00;4783017;29;119715;-86
2021/11/21 01:57:07;;;;;;;21.42;2.15;;;;;;;14.35;66.08;100299.53;4783061;29;122483;-87
2021/11/21 01:59:34;;;;;;;22.52;2.42;;;;;;;14.37;66.06;100307.31;4820885;29;120150;-87
2021/11/21 02:02:00;;;;;;;16.08;2.40;;;;;;;14.41;66.51;100327.94;4766342;29;122211;-86
2021/11/21 02:04:25;;;;;;;22.10;2.33;;;;;;;14.32;66.04;100313.53;4779981;29;124289;-86
2021/11/21 02:06:51;;;;;;;22.67;2.75;;;;;;;14.01;65.88;100278.34;4814542;29;121603;-86
2021/11/21 02:09:17;;;;;;;27.52;3.03;;;;;;;14.29;66.24;100317.28;4777336;29;122363;-86
2021/11/21 02:11:42;;;;;;;19.05;2.60;;;;;;;14.30;66.25;100313.28;4810526;29;121063;-86
2021/11/21 02:14:08;;;;;;;18.95;2.92;;;;;;;14.27;65.99;100308.72;4796978;29;119802;-86
2021/11/21 02:16:34;;;;;;;18.17;2.67;;;;;;;14.26;65.94;100313.50;4785029;29;122360;-86
2021/11/21 02:19:00;;;;;;;21.13;3.15;;;;;;;14.29;66.03;100328.31;4784522;29;123424;-86
2021/11/21 02:21:30;;;;;;;25.52;3.55;;;;;;;14.27;65.90;100320.53;4806225;29;123232;-86
2021/11/21 02:23:59;;;;;;;21.40;3.05;;;;;;;14.26;65.97;100318.25;4810872;29;120601;-86
2021/11/21 02:26:25;;;;;;;26.13;3.13;;;;;;;14.16;65.38;100311.34;4765622;29;119558;-86
2021/11/21 02:28:53;;;;;;;23.65;2.80;;;;;;;13.92;65.61;100276.47;4778433;29;122216;-86
2021/11/21 02:31:21;;;;;;;23.45;3.33;;;;;;;14.13;65.58;100311.06;4783523;29;124072;-86
2021/11/21 02:33:49;;;;;;;26.98;3.75;;;;;;;13.95;65.45;100294.78;4781803;29;119796;-86
2021/11/21 02:36:17;;;;;;;19.77;2.95;;;;;;;13.97;65.14;100305.38;4777473;29;122159;-86
2021/11/21 02:38:44;;;;;;;20.27;3.28;;;;;;;14.00;65.03;100318.94;4782655;29;123387;-86
2021/11/21 02:41:10;;;;;;;28.17;3.72;;;;;;;13.86;64.78;100297.69;4787128;29;120812;-86
2021/11/21 02:43:38;;;;;;;21.85;3.10;;;;;;;13.77;64.78;100284.06;4796110;29;124263;-86
2021/11/21 02:46:04;;;;;;;22.85;3.33;;;;;;;13.79;65.04;100300.88;4799157;29;121858;-86
2021/11/21 02:48:32;;;;;;;22.40;2.83;;;;;;;13.68;64.90;100286.94;4796219;29;122539;-86
2021/11/21 02:50:59;;;;;;;26.67;3.47;;;;;;;13.66;64.46;100292.16;4791508;29;123055;-86
2021/11/21 02:53:28;;;;;;;20.23;3.25;;;;;;;13.49;64.78;100265.16;4796989;29;119932;-86
2021/11/21 02:55:56;;;;;;;18.33;2.67;;;;;;;13.60;64.87;100286.59;4815648;29;122493;-86
2021/11/21 02:58:23;;;;;;;24.98;3.60;;;;;;;13.42;65.00;100265.53;4813735;29;123559;-86
2021/11/21 03:00:49;;;;;;;14.70;2.92;;;;;;;13.48;65.47;100285.66;4766571;29;119722;-86
2021/11/21 03:03:16;;;;;;;20.65;2.97;;;;;;;13.52;65.35;100289.00;4786146;29;122607;-86
2021/11/21 03:05:42;;;;;;;25.48;3.10;;;;;;;13.49;65.44;100297.47;4814389;29;120932;-86
2021/11/21 03:08:08;;;;;;;19.58;3.63;;;;;;;13.43;65.45;100286.34;4797648;29;122160;-86
2021/11/21 03:10:34;;;;;;;19.02;3.10;;;;;;;13.35;65.53;100282.47;4807406;29;120011;-86
2021/11/21 03:13:06;;;;;;;30.95;3.78;;;;;;;13.41;65.47;100291.56;4781914;29;120987;-86
2021/11/21 03:15:33;;;;;;;29.83;3.88;;;;;;;13.45;65.01;100305.91;4761872;29;122104;-86
2021/11/21 03:17:59;;;;;;;25.80;4.00;;;;;;;13.21;64.90;100277.75;4785158;29;127432;-86
2021/11/21 03:20:28;;;;;;;30.08;3.25;;;;;;;13.04;65.10;100263.72;4794329;29;119760;-86
2021/11/21 03:22:55;;;;;;;20.73;3.22;;;;;;;13.35;65.24;100312.78;4766370;29;123129;-86
2021/11/21 03:25:25;;;;;;;24.95;3.72;;;;;;;13.22;64.93;100304.06;4820303;29;119993;-86
2021/11/21 03:27:51;;;;;;;23.45;3.50;;;;;;;13.25;65.01;100311.38;4787473;29;123249;-86
2021/11/21 03:30:19;;;;;;;19.60;2.90;;;;;;;13.18;64.81;100309.00;4798773;29;123850;-86
2021/11/21 03:32:46;;;;;;;23.17;3.15;;;;;;;13.17;64.92;100304.69;4813823;29;119932;-86
2021/11/21 03:35:13;;;;;;;23.80;3.58;;;;;;;13.13;64.98;100306.91;4815468;29;119996;-86
2021/11/21 03:37:40;;;;;;;26.13;3.88;;;;;;;13.09;64.52;100298.06;4763453;29;123409;-86
2021/11/21 03:40:08;;;;;;;21.55;3.65;;;;;;;13.00;65.06;100300.91;4802397;29;120384;-86
2021/11/21 03:42:34;;;;;;;23.85;3.20;;;;;;;12.94;64.59;100289.81;4806183;29;123097;-86
2021/11/21 03:45:00;;;;;;;20.63;2.85;;;;;;;12.95;64.63;100294.09;4795959;29;120025;-85
2021/11/21 03:47:26;;;;;;;24.70;2.92;;;;;;;12.88;64.39;100300.75;4790141;29;120278;-86
2021/11/21 03:49:52;;;;;;;20.90;3.13;;;;;;;12.76;64.41;100285.25;4796609;29;123377;-86
2021/11/21 03:52:17;;;;;;;21.70;2.83;;;;;;;12.74;64.35;100296.00;4801490;29;120375;-85
2021/11/21 03:54:43;;;;;;;21.45;3.78;;;;;;;12.80;64.51;100307.13;4782962;29;121784;-86
2021/11/21 03:57:09;;;;;;;22.33;3.60;;;;;;;12.58;64.27;100280.72;4813262;29;120304;-86
2021/11/21 03:59:36;;;;;;;24.35;3.45;;;;;;;12.71;64.78;100307.94;4780770;29;119709;-86
2021/11/21 04:02:02;;;;;;;22.58;2.50;;;;;;;12.66;64.60;100303.09;4802508;29;122727;-86
2021/11/21 04:04:30;;;;;;;21.20;3.17;;;;;;;12.65;64.54;100303.59;4782018;29;119910;-86
2021/11/21 04:06:56;;;;;;;19.30;2.80;;;;;;;12.59;64.57;100296.00;4794301;29;119755;-86
2021/11/21 04:09:23;;;;;;;18.98;2.72;;;;;;;12.53;64.91;100294.34;4796454;29;122225;-85
2021/11/21 04:11:51;;;;;;;27.02;3.17;;;;;;;12.34;64.93;100269.03;4767664;29;119778;-85
2021/11/21 04:14:17;;;;;;;17.50;2.80;;;;;;;12.45;64.96;100285.72;4796309;29;122984;-86
2021/11/21 04:16:44;;;;;;;24.70;3.33;;;;;;;12.51;64.94;100291.31;4808413;29;122959;-86
2021/11/21 04:19:10;;;;;;;23.52;3.33;;;;;;;12.50;64.92;100292.56;4783654;29;120068;-86
2021/11/21 04:21:37;;;;;;;21.95;3.22;;;;;;;12.49;65.06;100288.28;4783399;29;122043;-86
2021/11/21 04:24:04;;;;;;;17.20;2.80;;;;;;;12.16;64.74;100236.94;4793431;29;123058;-86
2021/11/21 04:26:30;;;;;;;22.88;3.22;;;;;;;12.12;64.69;100236.38;4778386;29;119603;-85
2021/11/21 04:28:55;;;;;;;24.02;2.80;;;;;;;12.48;64.89;100286.75;4803031;29;121822;-86
2021/11/21 04:31:21;;;;;;;15.52;2.30;;;;;;;12.44;64.54;100288.94;4797904;29;119956;-86
2021/11/21 04:33:49;;;;;;;23.13;2.65;;;;;;;12.32;64.51;100265.25;4801636;29;120112;-85
2021/11/21 04:36:15;;;;;;;21.33;2.80;;;;;;;12.30;64.43;100268.44;4783514;29;120396;-85
2021/11/21 04:38:41;;;;;;;16.27;2.63;;;;;;;12.35;64.32;100276.06;4765931;29;119870;-86
2021/11/21 04:41:07;;;;;;;19.08;2.53;;;;;;;12.28;64.50;100265.41;4768656;29;122494;-86
2021/11/21 04:43:32;;;;;;;17.70;2.70;;;;;;;12.35;64.70;100275.28;4818296;29;120920;-85
2021/11/21 04:45:59;;;;;;;12.88;2.30;;;;;;;12.29;64.71;100272.41;4763813;29;120327;-86
2021/11/21 04:48:25;;;;;;;15.18;2.75;;;;;;;12.38;64.67;100274.34;4817941;29;120098;-86
2021/11/21 04:50:52;;;;;;;22.45;3.08;;;;;;;12.23;64.19;100266.81;4814916;29;123479;-85
2021/11/21 04:53:21;;;;;;;16.65;2.65;;;;;;;12.27;64.10;100275.63;4807388;29;122993;-86
2021/11/21 04:55:46;;;;;;;22.05;2.80;;;;;;;12.27;64.18;100285.88;4807455;29;120540;-86
2021/11/21 04:58:14;;;;;;;22.85;2.83;;;;;;;12.13;64.12;100267.38;4800040;29;119851;-86
2021/11/21 05:00:40;;;;;;;19.88;3.13;;;;;;;12.13;64.12;100270.88;4793417;29;122483;-85
2021/11/21 05:03:06;;;;;;;17.33;2.58;;;;;;;12.12;64.34;100269.38;4766625;29;122686;-85
2021/11/21 05:05:32;;;;;;;19.42;2.50;;;;;;;11.87;64.35;100242.38;4808903;29;119568;-86
2021/11/21 05:07:58;;;;;;;18.00;2.47;;;;;;;12.09;64.65;100273.06;4783565;29;121982;-85
2021/11/21 05:10:24;;;;;;;17.77;2.65;;;;;;;12.03;64.74;100269.41;4803180;29;122692;-85
2021/11/21 05:12:50;;;;;;;15.82;3.03;;;;;;;12.12;64.94;100280.38;4802166;29;120469;-85
2021/11/21 05:15:17;;;;;;;13.25;2.30;;;;;;;11.90;64.99;100253.19;4798163;29;124054;-85
2021/11/21 05:17:45;;;;;;;15.57;2.70;;;;;;;12.09;64.97;100278.56;4792576;29;119614;-85
2021/11/21 05:20:12;;;;;;;14.57;2.22;;;;;;;12.19;64.73;100291.00;4773382;29;122305;-85
2021/11/21 05:22:38;;;;;;;16.77;2.97;;;;;;;12.15;65.04;100279.41;4802729;29;123962;-85
2021/11/21 05:25:04;;;;;;;15.52;2.45;;;;;;;12.22;65.53;100279.03;4818121;29;121110;-85
2021/11/21 05:27:30;;;;;;;18.83;2.50;;;;;;;12.23;65.63;100261.31;4780280;29;122161;-85
2021/11/21 05:29:56;;;;;;;18.20;2.83;;;;;;;12.35;66.11;100272.53;4797737;29;123014;-85
2021/11/21 05:32:23;;;;;;;13.00;2.13;;;;;;;12.46;65.75;100279.00;4798273;29;120584;-85
2021/11/21 05:34:51;;;;;;;13.93;2.08;;;;;;;12.40;64.82;100275.38;4806358;29;122562;-85
2021/11/21 05:37:18;;;;;;;21.58;2.45;;;;;;;12.38;64.94;100279.84;4796380;29;120013;-85
2021/11/21 05:39:44;;;;;;;18.27;2.25;;;;;;;12.35;64.95;100273.28;4798012;29;122422;-85
2021/11/21 05:42:10;;;;;;;14.88;2.38;;;;;;;12.41;64.90;100281.66;4808108;29;120526;-85
2021/11/21 05:44:35;;;;;;;14.60;2.15;;;;;;;12.38;64.33;100282.59;4798604;29;119591;-85
2021/11/21 05:47:02;;;;;;;13.48;1.77;;;;;;;12.34;64.21;100284.78;4798073;29;119820;-85
2021/11/21 05:49:28;;;;;;;8.80;1.73;;;;;;;12.18;63.77;100267.47;4800679;29;120464;-85
2021/11/21 05:51:54;;;;;;;18.48;2.10;;;;;;;12.22;63.82;100289.28;4787077;29;120447;-85
2021/11/21 05:54:20;;;;;;;13.57;2.00;;;;;;;11.96;63.96;100256.81;4766929;29;122372;-85
2021/11/21 05:56:45;;;;;;;10.85;1.80;;;;;;;12.11;63.99;100278.09;4806787;29;120207;-85
2021/11/21 05:59:11;;;;;;;14.30;2.42;;;;;;;12.04;63.94;100281.19;4801799;29;119923;-85
2021/11/21 06:01:37;;;;;;;18.73;2.22;;;;;;;12.05;63.77;100274.44;4782932;29;122738;-85
2021/11/21 06:04:03;;;;;;;14.43;2.28;;;;;;;11.97;63.90;100277.56;4767419;29;119839;-85
2021/11/21 06:06:29;;;;;;;15.05;2.15;;;;;;;12.02;63.73;100278.91;4802753;29;122532;-85
2021/11/21 06:08:55;;;;;;;14.77;2.10;;;;;;;11.95;64.04;100277.28;4797194;29;123680;-85
2021/11/21 06:11:23;;;;;;;12.10;2.05;;;;;;;11.72;63.97;100233.28;4797707;29;123852;-85
2021/11/21 06:13:49;;;;;;;14.32;2.33;;;;;;;11.86;64.01;100265.59;4786312;29;119733;-85
2021/11/21 06:16:15;;;;;;;12.95;1.92;;;;;;;11.97;64.67;100285.06;4795721;29;124066;-85
2021/11/21 06:18:43;;;;;;;14.43;1.83;;;;;;;12.08;65.23;100296.28;4803917;29;119957;-85
2021/11/21 06:21:09;;;;;;;9.52;1.52;;;;;;;11.97;65.13;100276.81;4772382;29;122604;-86
2021/11/21 06:23:35;;;;;;;11.00;1.45;;;;;;;12.15;64.33;100287.66;4815958;29;119588;-86
2021/11/21 06:26:03;;;;;;;11.63;1.48;;;;;;;11.85;63.91;100233.84;4767123;29;121990;-84
2021/11/21 06:28:28;;;;;;;10.40;1.60;;;;;;;12.13;63.39;100265.38;4821021;29;120147;-85
2021/11/21 06:30:54;;;;;;;8.02;1.52;;;;;;;12.22;63.53;100279.03;4797687;29;119789;-85
2021/11/21 06:33:20;;;;;;;7.30;1.30;;;;;;;12.07;63.47;100250.03;4783364;29;121994;-85
2021/11/21 06:35:46;;;;;;;8.00;1.35;;;;;;;12.21;63.29;100276.78;4799046;29;123269;-85
2021/11/21 06:38:14;;;;;;;10.35;1.23;;;;;;;12.19;63.34;100268.22;4804550;29;120552;-85
2021/11/21 06:40:40;;;;;;;5.78;0.90;;;;;;;12.11;62.74;100273.34;4812319;29;121622;-85
2021/11/21 06:43:08;;;;;;;6.22;1.17;;;;;;;12.18;63.18;100283.22;4804888;29;120229;-85
2021/11/21 06:45:34;;;;;;;8.82;1.52;;;;;;;12.02;63.16;100276.16;4816937;29;119773;-86
2021/11/21 06:48:00;;;;;;;6.28;1.17;;;;;;;12.11;62.83;100300.84;4809486;29;123292;-85
2021/11/21 06:50:26;;;;;;;5.95;1.52;;;;;;;12.08;63.01;100296.28;4766840;29;119784;-86
2021/11/21 06:52:52;;;;;;;7.15;1.33;;;;;;;12.05;63.14;100297.19;4784123;29;122347;-85
2021/11/21 06:55:18;;;;;;;11.65;1.40;;;;;;;12.17;63.74;100331.19;4797323;29;120112;-85
2021/11/21 06:57:44;;;;;;;9.52;1.52;;;;;;;12.14;63.97;100299.91;4797688;29;119659;-87
2021/11/21 07:00:13;;;;;;;9.48;1.40;;;;;;;11.80;64.24;100246.22;4808263;29;122644;-86
2021/11/21 07:02:42;;;;;;;7.85;1.20;;;;;;;11.99;63.98;100268.84;4782790;29;119880;-88
2021/11/21 07:05:10;;;;;;;5.40;1.20;;;;;;;12.17;63.44;100281.69;4781233;29;122874;-87
2021/11/21 07:07:37;;;;;;;6.55;1.10;;;;;;;12.22;63.30;100283.78;4798743;29;124033;-86
2021/11/21 07:10:04;;;;;;;9.88;1.42;;;;;;;12.25;64.01;100283.59;4766309;29;120156;-86
2021/11/21 07:12:30;;;;;;;8.60;1.75;;;;;;;12.21;64.03;100285.03;4797396;29;121906;-86
2021/11/21 07:14:56;;;;;;;8.52;1.30;;;;;;;12.12;64.87;100261.13;4773710;29;123011;-86
2021/11/21 07:17:22;;;;;;;10.48;1.70;;;;;;;12.11;64.31;100267.84;4795600;29;119896;-86
2021/11/21 07:19:47;;;;;;;10.63;1.50;;;;;;;12.22;64.61;100289.28;4761285;29;123156;-86
2021/11/21 07:22:13;;;;;;;13.80;1.50;;;;;;;12.10;64.61;100271.06;4772794;29;123163;-86
2021/11/21 07:24:39;;;;;;;9.23;1.52;;;;;;;12.24;64.94;100289.56;4781585;29;122401;-86
2021/11/21 07:27:05;;;;;;;11.85;1.33;;;;;;;12.12;64.27;100272.13;4794873;29;123320;-86
2021/11/21 07:29:31;;;;;;;8.32;1.88;;;;;;;12.08;63.86;100271.53;4783933;29;119668;-86
2021/11/21 07:31:59;;;;;;;14.32;2.05;;;;;;;12.17;64.05;100296.19;4798584;29;122528;-86
2021/11/21 07:34:24;;;;;;;13.43;2.15;;;;;;;12.01;63.64;100280.13;4796479;29;123480;-85
2021/11/21 07:36:51;;;;;;;9.00;2.25;;;;;;;12.10;63.67;100304.81;4791482;29;119930;-86
2021/11/21 07:39:21;;;;;;;12.35;1.92;;;;;;;11.82;63.89;100263.00;4779740;29;122167;-86
2021/11/21 07:41:47;;;;;;;13.52;2.45;;;;;;;11.93;63.63;100290.72;4793966;29;123212;-86
2021/11/21 07:44:15;;;;;;;10.85;2.63;;;;;;;11.94;63.72;100291.50;4773156;29;120226;-86
2021/11/21 07:46:42;;;;;;;11.73;2.25;;;;;;;11.88;63.80;100291.38;4814758;29;123730;-85
2021/11/21 07:49:08;;;;;;;17.80;2.78;;;;;;;11.97;63.95;100298.78;4781183;29;119898;-85
2021/11/21 07:51:34;;;;;;;13.85;2.00;;;;;;;12.02;64.29;100317.38;4770114;29;122952;-86
2021/11/21 07:54:00;;;;;;;8.95;1.60;;;;;;;11.95;64.73;100307.50;4796354;29;120173;-86
2021/11/21 07:56:26;;;;;;;6.43;1.80;;;;;;;11.96;64.93;100311.00;4776939;29;120300;-87
2021/11/21 07:58:55;;;;;;;11.57;2.10;;;;;;;12.17;65.47;100337.44;4795666;29;120096;-86
2021/11/21 08:01:20;;;;;;;11.95;1.98;;;;;;;11.97;65.52;100302.31;4793728;29;120365;-86
2021/11/21 08:03:46;;;;;;;12.15;1.90;;;;;;;12.19;66.13;100318.47;4810925;29;119659;-86
2021/11/21 08:06:12;;;;;;;12.00;2.45;;;;;;;12.22;65.85;100312.03;4802478;29;119981;-86
2021/11/21 08:08:38;;;;;;;14.55;1.83;;;;;;;12.00;66.04;100262.13;4790496;29;120530;-86
2021/11/21 08:11:04;;;;;;;15.35;2.40;;;;;;;12.45;65.38;100317.97;4812360;29;122170;-86
2021/11/21 08:13:30;;;;;;;13.07;2.08;;;;;;;12.47;65.26;100302.50;4779883;29;120206;-86
2021/11/21 08:15:57;;;;;;;15.18;2.22;;;;;;;12.58;64.88;100319.25;4781935;29;120355;-86
2021/11/21 08:18:24;;;;;;;14.25;1.95;;;;;;;12.66;64.93;100324.38;4779603;29;122566;-86
2021/11/21 08:20:50;;;;;;;14.40;2.20;;;;;;;12.56;64.61;100304.44;4765999;29;122888;-86
2021/11/21 08:23:16;;;;;;;14.13;1.98;;;;;;;12.70;64.05;100319.44;4804501;29;120008;-86
2021/11/21 08:25:42;;;;;;;15.10;1.95;;;;;;;12.50;64.16;100292.56;4796727;29;122393;-86
2021/11/21 08:28:08;;;;;;;9.10;2.55;;;;;;;12.54;64.04;100318.66;4800190;29;121224;-86
2021/11/21 08:30:38;;;;;;;8.55;2.22;;;;;;;12.55;64.26;100325.69;4800298;29;123016;-86
2021/11/21 08:33:08;;;;;;;11.55;2.10;;;;;;;12.50;64.23;100329.06;4795129;29;123466;-86
2021/11/21 08:35:35;;;;;;;11.02;1.75;;;;;;;12.33;64.33;100310.75;4789236;29;119936;-85
2021/11/21 08:38:02;;;;;;;14.45;2.58;;;;;;;12.14;63.89;100288.91;4800401;29;122680;-86
2021/11/21 08:40:28;;;;;;;12.07;1.85;;;;;;;12.29;64.42;100311.66;4818419;29;124672;-86
2021/11/21 08:42:56;;;;;;;13.02;2.58;;;;;;;12.41;64.19;100342.16;4799720;29;119610;-86
2021/11/21 08:45:22;;;;;;;15.00;3.05;;;;;;;12.17;64.28;100301.69;4798339;29;121831;-86
2021/11/21 08:47:49;;;;;;;20.88;3.55;;;;;;;12.28;64.09;100326.66;4820373;29;120852;-85
2021/11/21 08:50:15;;;;;;;9.88;2.90;;;;;;;11.90;64.34;100271.66;4797541;29;120527;-85
2021/11/21 08:52:41;;;;;;;12.95;3.13;;;;;;;12.28;64.27;100336.91;4813110;29;123141;-86
2021/11/21 08:55:07;;;;;;;11.95;2.47;;;;;;;12.18;64.77;100318.97;4798636;29;119760;-85
2021/11/21 08:57:34;;;;;;;13.13;2.63;;;;;;;12.32;64.83;100336.75;4768048;29;124474;-86
2021/11/21 09:00:05;;;;;;;15.48;2.80;;;;;;;12.24;64.93;100326.09;4766879;29;123134;-86
2021/11/21 09:02:31;;;;;;;12.80;3.63;;;;;;;12.32;65.00;100336.75;4772645;29;119662;-85
2021/11/21 09:04:57;;;;;;;16.65;3.83;;;;;;;12.03;65.16;100301.66;4781935;29;122848;-86
2021/11/21 09:07:23;;;;;;;14.70;3.88;;;;;;;12.06;65.34;100297.97;4794165;29;123568;-86
2021/11/21 09:09:48;;;;;;;11.82;3.42;;;;;;;12.38;65.52;100338.34;4786863;29;119580;-86
2021/11/21 09:12:14;;;;;;;17.42;4.25;;;;;;;12.36;65.40;100327.06;4797383;29;124121;-86
2021/11/21 09:14:40;;;;;;;13.93;4.13;;;;;;;12.46;65.44;100342.25;4810428;29;120335;-86
2021/11/21 09:17:05;;;;;;;17.05;3.60;;;;;;;12.47;65.23;100349.28;4773174;29;121649;-86
2021/11/21 09:19:31;;;;;;;16.10;2.80;;;;;;;12.42;65.83;100332.66;4777441;29;123179;-86
2021/11/21 09:21:57;;;;;;;9.98;1.98;;;;;;;12.49;65.78;100335.81;4810990;29;119808;-86
2021/11/21 09:24:23;;;;;;;16.80;2.40;;;;;;;12.56;65.71;100349.22;4797916;29;119835;-86
2021/11/21 09:26:48;;;;;;;10.40;1.55;;;;;;;12.69;65.93;100364.69;4813060;29;122794;-85
2021/11/21 09:29:14;;;;;;;14.00;2.05;;;;;;;12.67;65.87;100348.66;4783064;29;119623;-85
2021/11/21 09:31:40;;;;;;;10.35;1.83;;;;;;;12.65;65.30;100353.13;4799318;29;122197;-85
2021/11/21 09:34:05;;;;;;;9.93;1.58;;;;;;;12.68;65.42;100358.44;4806635;29;122136;-88
2021/11/21 09:36:32;;;;;;;11.68;2.13;;;;;;;12.73;65.49;100374.28;4797081;29;123179;-85
2021/11/21 09:38:58;;;;;;;10.45;1.77;;;;;;;12.67;65.35;100361.66;4794530;29;123268;-85
2021/11/21 09:41:27;;;;;;;8.70;1.42;;;;;;;12.75;65.45;100368.28;4778148;29;120777;-86
2021/11/21 09:43:52;;;;;;;7.78;1.50;;;;;;;12.74;65.83;100361.28;4777290;29;121866;-85
2021/11/21 09:46:18;;;;;;;14.13;1.75;;;;;;;12.65;65.74;100351.13;4812418;29;122812;-85
2021/11/21 09:48:47;;;;;;;6.70;1.45;;;;;;;12.79;65.63;100364.16;4792890;29;122044;-86
2021/11/21 09:51:13;;;;;;;9.23;1.60;;;;;;;12.48;65.29;100309.53;4761397;29;122124;-86
2021/11/21 09:53:39;;;;;;;7.50;1.60;;;;;;;12.57;66.06;100314.22;4802472;29;123601;-85
2021/11/21 09:56:05;;;;;;;7.10;1.27;;;;;;;12.96;65.74;100364.44;4764864;29;122225;-86
2021/11/21 09:58:30;;;;;;;6.88;1.30;;;;;;;12.86;65.61;100352.75;4765550;29;123100;-86
2021/11/21 10:00:56;;;;;;;5.82;1.10;;;;;;;12.97;65.59;100370.69;4783611;29;119513;-85
2021/11/21 10:03:25;;;;;;;8.48;1.17;;;;;;;12.55;65.18;100311.19;4793190;29;122176;-88
2021/11/21 10:05:55;;;;;;;7.32;1.40;;;;;;;12.91;65.77;100357.59;4791929;29;123474;-88
2021/11/21 10:08:21;;;;;;;7.68;1.10;;;;;;;13.05;65.79;100374.59;4791450;29;119837;-91
2021/11/21 10:10:50;;;;;;;8.05;1.35;;;;;;;13.09;65.19;100375.19;4807394;29;120213;-88
2021/11/21 10:13:31;;;;;;;4.90;1.17;;;;;;;13.11;65.24;100380.97;4810107;29;123132;-88
2021/11/21 10:16:14;;;;;;;7.18;1.00;;;;;;;13.13;65.38;100376.50;4812012;29;121369;-93
2021/11/21 10:19:00;;;;;;;6.25;1.40;;;;;;;13.18;65.92;100372.34;4799476;29;122004;-93
2021/11/21 10:21:33;;;;;;;5.82;1.30;;;;;;;13.13;66.49;100359.22;4800113;29;121154;-92
2021/11/21 10:24:21;;;;;;;8.98;1.30;;;;;;;13.26;66.42;100372.75;4794863;29;120052;-94
2021/11/21 10:27:01;;;;;;;9.70;1.58;;;;;;;13.30;65.69;100376.81;4809291;29;123306;-91
2021/11/21 10:29:30;;;;;;;7.38;1.30;;;;;;;13.31;65.19;100372.81;4816886;29;120186;-92
2021/11/21 10:31:56;;;;;;;9.52;1.30;;;;;;;13.34;65.04;100366.34;4814705;29;120633;-92
2021/11/21 10:34:22;;;;;;;9.57;1.30;;;;;;;12.99;64.49;100327.69;4801856;29;122701;-84
2021/11/21 10:36:48;;;;;;;4.60;1.42;;;;;;;13.31;65.10;100372.06;4776178;29;121255;-86
2021/11/21 10:39:16;;;;;;;11.25;1.42;;;;;;;13.41;64.28;100374.22;4794856;29;119841;-86
2021/11/21 10:41:45;;;;;;;5.65;1.23;;;;;;;13.35;64.43;100376.13;4794591;29;121404;-85
2021/11/21 10:44:15;;;;;;;10.88;1.30;;;;;;;13.43;64.02;100388.28;4812871;29;122316;-82
2021/11/21 10:46:53;;;;;;;5.95;1.27;;;;;;;13.46;64.35;100376.31;4791457;29;123976;-82
2021/11/21 10:49:28;;;;;;;10.35;1.05;;;;;;;13.51;64.17;100378.41;4766859;29;119958;-83
2021/11/21 10:51:56;;;;;;;7.35;1.35;;;;;;;13.59;64.71;100378.00;4810884;29;122094;-83
2021/11/21 10:54:25;;;;;;;7.32;1.20;;;;;;;13.66;64.74;100380.34;4797176;29;123273;-85
2021/11/21 10:56:54;;;;;;;5.40;1.00;;;;;;;13.56;64.49;100362.44;4794487;29;120061;-85
2021/11/21 10:59:35;;;;;;;10.75;1.45;;;;;;;13.72;64.07;100381.19;4795024;29;123234;-83
2021/11/21 11:02:28;;;;;;;7.75;1.13;;;;;;;13.70;64.03;100386.44;4779616;29;119593;-84
2021/11/21 11:05:00;;;;;;;10.10;1.80;;;;;;;13.68;63.82;100389.66;4795747;29;122366;-85
2021/11/21 11:07:27;;;;;;;8.85;1.38;;;;;;;13.68;63.75;100395.19;4798812;29;123788;-84
2021/11/21 11:09:55;;;;;;;6.35;1.83;;;;;;;13.71;63.42;100398.97;4799884;29;120527;-86
2021/11/21 11:12:23;;;;;;;11.90;3.22;;;;;;;13.59;63.12;100372.50;4822614;29;119479;-85
2021/11/21 11:14:49;;;;;;;9.05;1.45;;;;;;;13.74;63.02;100403.56;4802090;29;123019;-82